Time;durP1;ratioP1;P1;durP2;ratioP2;P2;SDS_P1;SDS_P2;PMS_P1;PMS_P2;Temp;Humidity;BMP_temperature;BMP_pressure;BME280_temperature;BME280_humidity;BME280_pressure;Samples;Min_cycle;Max_cycle;Signal;HPM_P1;HPM_P2
2022/09/13 00:02:10;;;;;;;;;;;14.60;99.90;;;;;;5076725;28;19908;-63
2022/09/13 00:04:35;;;;;;;;;;;14.60;99.90;;;;;;5076667;28;19935;-63
2022/09/13 00:07:01;;;;;;;;;;;14.60;99.90;;;;;;5076255;28;19932;-64
2022/09/13 00:09:26;;;;;;;;;;;14.60;99.90;;;;;;5076586;28;19915;-63
2022/09/13 00:11:52;;;;;;;;;;;15.00;99.90;;;;;;5076822;28;19951;-63
2022/09/13 00:14:17;;;;;;;;;;;14.70;99.90;;;;;;5076533;28;19955;-63
2022/09/13 00:16:42;;;;;;;;;;;14.70;99.90;;;;;;5076351;28;19917;-63
2022/09/13 00:19:08;;;;;;;;;;;14.70;99.90;;;;;;5076647;28;19909;-63
2022/09/13 00:21:34;;;;;;;;;;;14.80;99.90;;;;;;5076343;28;20370;-63
2022/09/13 00:23:59;;;;;;;;;;;14.80;99.90;;;;;;5076359;28;19908;-63
2022/09/13 00:26:26;;;;;;;;;;;14.80;99.90;;;;;;5076197;28;19912;-63
2022/09/13 00:28:53;;;;;;;;;;;14.80;99.90;;;;;;5076509;28;19912;-63
2022/09/13 00:31:19;;;;;;;;;;;14.90;99.90;;;;;;5076465;28;19908;-63
2022/09/13 00:33:44;;;;;;;;;;;14.90;99.90;;;;;;5076162;28;19908;-63
2022/09/13 00:36:10;;;;;;;;;;;15.00;99.90;;;;;;5076132;28;19909;-64
2022/09/13 00:38:36;;;;;;;;;;;15.00;99.90;;;;;;5075857;28;19966;-63
2022/09/13 00:41:03;;;;;;;;;;;15.00;99.90;;;;;;5076041;28;19912;-63
2022/09/13 00:43:45;;;;;;;;;;;15.00;99.90;;;;;;5076255;28;20004;-63
2022/09/13 00:46:12;;;;;;;;;;;15.00;99.90;;;;;;5076148;28;19919;-63
2022/09/13 00:48:38;;;;;;;;;;;15.00;99.90;;;;;;5075923;28;20007;-64
2022/09/13 00:51:04;;;;;;;;;;;15.00;99.90;;;;;;5075813;28;19951;-64
2022/09/13 00:53:32;;;;;;;;;;;15.10;99.90;;;;;;5076075;28;19916;-64
2022/09/13 00:56:01;;;;;;;;;;;15.10;99.90;;;;;;5075729;28;20007;-63
2022/09/13 00:58:31;;;;;;;;;;;15.10;99.90;;;;;;5075722;28;19908;-63
2022/09/13 01:00:58;;;;;;;;;;;15.10;99.90;;;;;;5075680;28;20418;-63
2022/09/13 01:03:26;;;;;;;;;;;15.10;99.90;;;;;;5075536;28;19908;-63
2022/09/13 01:05:54;;;;;;;;;;;15.10;99.90;;;;;;5075285;28;19916;-64
2022/09/13 01:08:21;;;;;;;;;;;15.10;99.90;;;;;;5075479;28;19915;-63
2022/09/13 01:10:49;;;;;;;;;;;15.10;99.90;;;;;;5075713;28;19958;-63
2022/09/13 01:13:17;;;;;;;;;;;15.10;99.90;;;;;;5075601;28;19999;-63
2022/09/13 01:15:42;;;;;;;;;;;15.10;99.90;;;;;;5075634;28;20453;-63
2022/09/13 01:18:09;;;;;;;;;;;15.10;99.90;;;;;;5075398;28;19960;-63
2022/09/13 01:20:55;;;;;;;;;;;15.10;99.90;;;;;;5075257;28;19954;-63
2022/09/13 01:23:40;;;;;;;;;;;15.10;99.90;;;;;;5075099;28;19909;-63
2022/09/13 01:26:14;;;;;;;;;;;15.20;99.90;;;;;;5074965;28;19913;-63
2022/09/13 01:28:54;;;;;;;;;;;15.20;99.90;;;;;;5057212;28;19915;-63
2022/09/13 01:31:29;;;;;;;;;;;15.20;99.90;;;;;;5075107;28;19908;-63
2022/09/13 01:34:05;;;;;;;;;;;15.20;99.90;;;;;;5074986;28;19909;-63
2022/09/13 01:36:38;;;;;;;;;;;15.30;99.90;;;;;;5075207;28;19962;-64
2022/09/13 01:41:55;;;;;;;;;;;15.30;99.90;;;;;;5071084;28;19912;-64
2022/09/13 01:44:40;;;;;;;;;;;15.30;99.90;;;;;;5071222;28;20015;-64
2022/09/13 01:47:25;;;;;;;;;;;15.40;99.90;;;;;;5070900;28;19909;-64
2022/09/13 01:50:06;;;;;;;;;;;15.40;99.90;;;;;;5070820;28;19909;-64
2022/09/13 01:52:40;;;;;;;;;;;15.50;99.90;;;;;;5070750;28;19958;-64
2022/09/13 01:55:10;;;;;;;;;;;15.50;99.90;;;;;;5071006;28;20385;-64
2022/09/13 01:57:39;;;;;;;;;;;15.70;99.90;;;;;;5070973;28;20294;-64
2022/09/13 02:00:08;;;;;;;;;;;15.60;99.90;;;;;;5070857;28;20432;-64
2022/09/13 02:02:38;;;;;;;;;;;15.60;99.90;;;;;;5070883;28;19909;-64
2022/09/13 02:05:06;;;;;;;;;;;15.60;99.90;;;;;;5069263;28;19952;-64
2022/09/13 02:07:35;;;;;;;;;;;15.70;99.90;;;;;;5070562;28;19916;-65
2022/09/13 02:10:06;;;;;;;;;;;15.80;99.90;;;;;;5070734;28;19909;-64
2022/09/13 02:12:33;;;;;;;;;;;15.70;99.90;;;;;;5070658;28;19909;-64
2022/09/13 02:15:03;;;;;;;;;;;15.80;99.90;;;;;;5086264;28;19909;-64
2022/09/13 02:17:31;;;;;;;;;;;15.80;99.90;;;;;;5070594;28;19909;-65
2022/09/13 02:19:59;;;;;;;;;;;15.90;99.90;;;;;;5070190;28;20376;-64
2022/09/13 02:22:30;;;;;;;;;;;15.80;99.90;;;;;;5070429;28;20326;-64
2022/09/13 02:24:59;;;;;;;;;;;15.80;99.90;;;;;;5070396;28;19912;-64
2022/09/13 02:27:27;;;;;;;;;;;15.90;99.90;;;;;;5070358;28;19931;-63
2022/09/13 02:29:56;;;;;;;;;;;15.80;99.90;;;;;;5068787;28;20116;-63
2022/09/13 02:32:24;;;;;;;;;;;15.80;99.90;;;;;;5070265;28;19908;-64
2022/09/13 02:34:52;;;;;;;;;;;15.80;99.90;;;;;;5070178;28;20008;-64
2022/09/13 02:37:18;;;;;;;;;;;15.90;99.90;;;;;;5070119;28;20405;-64
2022/09/13 02:39:47;;;;;;;;;;;15.90;99.90;;;;;;5073839;28;19970;-63
2022/09/13 02:42:16;;;;;;;;;;;16.00;99.90;;;;;;5090251;28;19920;-64
2022/09/13 02:44:44;;;;;;;;;;;15.90;99.90;;;;;;5089887;28;20011;-63
2022/09/13 02:47:12;;;;;;;;;;;15.90;99.90;;;;;;5090238;28;20401;-64
2022/09/13 02:49:58;;;;;;;;;;;15.90;99.90;;;;;;5090103;28;19908;-63
2022/09/13 02:52:43;;;;;;;;;;;15.90;99.90;;;;;;5079910;28;19912;-64
2022/09/13 02:55:16;;;;;;;;;;;15.90;99.90;;;;;;5076219;28;19908;-64
2022/09/13 02:58:02;;;;;;;;;;;15.90;99.90;;;;;;5076510;28;19913;-64
2022/09/13 03:00:27;;;;;;;;;;;15.90;99.90;;;;;;5076085;28;19913;-63
2022/09/13 03:02:55;;;;;;;;;;;15.90;99.90;;;;;;5076429;28;20375;-63
2022/09/13 03:05:20;;;;;;;;;;;15.90;99.90;;;;;;5076073;28;19916;-64
2022/09/13 03:07:46;;;;;;;;;;;15.90;99.90;;;;;;5076064;28;19916;-64
2022/09/13 03:10:13;;;;;;;;;;;15.90;99.90;;;;;;5076109;28;19960;-64
2022/09/13 03:12:54;;;;;;;;;;;15.90;99.90;;;;;;5076294;28;19974;-64
2022/09/13 03:15:26;;;;;;;;;;;15.90;99.90;;;;;;5076207;28;19908;-64
2022/09/13 03:18:12;;;;;;;;;;;15.90;99.90;;;;;;5075884;28;19952;-64
2022/09/13 03:20:57;;;;;;;;;;;15.90;99.90;;;;;;5075744;28;19912;-64
2022/09/13 03:23:33;;;;;;;;;;;15.80;99.90;;;;;;5075675;28;20398;-64
2022/09/13 03:26:07;;;;;;;;;;;15.80;99.90;;;;;;5076048;28;19956;-64
2022/09/13 03:28:48;;;;;;;;;;;15.80;99.90;;;;;;5075985;28;20003;-64
2022/09/13 03:31:33;;;;;;;;;;;15.80;99.90;;;;;;5076016;28;20290;-64
2022/09/13 03:34:09;;;;;;;;;;;15.80;99.90;;;;;;5075569;28;19916;-64
2022/09/13 03:36:41;;;;;;;;;;;15.80;99.90;;;;;;5075839;28;20320;-64
2022/09/13 03:39:26;;;;;;;;;;;15.70;99.90;;;;;;5075800;28;20365;-64
2022/09/13 03:41:55;;;;;;;;;;;15.80;99.90;;;;;;5057477;28;20450;-64
2022/09/13 03:44:22;;;;;;;;;;;15.80;99.90;;;;;;5075680;28;19912;-64
2022/09/13 03:46:50;;;;;;;;;;;15.70;99.90;;;;;;5075649;28;19972;-64
2022/09/13 03:49:16;;;;;;;;;;;15.70;99.90;;;;;;5075630;28;19915;-64
2022/09/13 03:51:44;;;;;;;;;;;15.70;99.90;;;;;;5075512;28;19913;-64
2022/09/13 03:54:13;;;;;;;;;;;15.70;99.90;;;;;;5075499;28;19908;-64
2022/09/13 03:56:39;;;;;;;;;;;15.70;99.90;;;;;;5075160;28;20003;-64
2022/09/13 03:59:04;;;;;;;;;;;15.70;99.90;;;;;;5075380;28;19997;-64
2022/09/13 04:01:30;;;;;;;;;;;15.70;99.90;;;;;;5075273;28;19912;-64
2022/09/13 04:03:55;;;;;;;;;;;15.70;99.90;;;;;;5056168;28;19931;-64
2022/09/13 04:06:21;;;;;;;;;;;15.80;99.90;;;;;;5075248;28;19912;-64
2022/09/13 04:08:47;;;;;;;;;;;15.80;99.90;;;;;;5074913;28;19909;-64
2022/09/13 04:11:12;;;;;;;;;;;15.80;99.90;;;;;;5075127;28;19947;-64
2022/09/13 04:13:37;;;;;;;;;;;15.80;99.90;;;;;;5075080;28;19974;-64
2022/09/13 04:16:04;;;;;;;;;;;15.90;99.90;;;;;;5074924;28;19936;-64
2022/09/13 04:18:29;;;;;;;;;;;15.90;99.90;;;;;;5074727;28;19912;-63
2022/09/13 04:20:56;;;;;;;;;;;15.90;99.90;;;;;;5074558;28;19912;-64
2022/09/13 04:23:22;;;;;;;;;;;15.90;99.90;;;;;;5074906;28;20359;-64
2022/09/13 04:25:47;;;;;;;;;;;15.90;99.90;;;;;;5074588;28;19916;-64
2022/09/13 04:28:13;;;;;;;;;;;16.00;99.90;;;;;;5074515;28;20483;-64
2022/09/13 04:30:38;;;;;;;;;;;16.10;99.90;;;;;;5074719;28;19915;-64
2022/09/13 04:33:03;;;;;;;;;;;16.20;99.90;;;;;;5074502;28;19951;-65
2022/09/13 04:35:29;;;;;;;;;;;16.20;99.90;;;;;;5074476;28;20386;-64
2022/09/13 04:37:55;;;;;;;;;;;16.30;99.90;;;;;;5056425;28;20282;-64
2022/09/13 04:40:22;;;;;;;;;;;16.40;99.90;;;;;;5074011;28;20030;-64
2022/09/13 04:42:48;;;;;;;;;;;16.40;99.90;;;;;;5074195;28;19915;-64
2022/09/13 04:45:13;;;;;;;;;;;16.40;99.90;;;;;;5074179;28;19909;-64
2022/09/13 04:47:39;;;;;;;;;;;16.50;99.90;;;;;;5074210;28;19914;-64
2022/09/13 04:50:06;;;;;;;;;;;16.50;99.90;;;;;;5074323;28;19999;-64
2022/09/13 04:52:32;;;;;;;;;;;16.60;99.90;;;;;;5074338;28;19908;-64
2022/09/13 04:55:00;;;;;;;;;;;16.60;99.90;;;;;;5073992;28;19909;-64
2022/09/13 04:57:26;;;;;;;;;;;16.60;99.90;;;;;;5074234;28;19909;-64
2022/09/13 04:59:51;;;;;;;;;;;16.50;99.90;;;;;;5073870;28;19982;-64
2022/09/13 05:02:17;;;;;;;;;;;16.50;99.90;;;;;;5074160;28;19908;-64
2022/09/13 05:04:42;;;;;;;;;;;16.50;99.90;;;;;;5073885;28;20355;-64
2022/09/13 05:07:08;;;;;;;;;;;16.60;99.90;;;;;;5074117;28;19916;-64
2022/09/13 05:09:33;;;;;;;;;;;16.60;99.90;;;;;;5073827;28;19912;-64
2022/09/13 05:11:59;;;;;;;;;;;16.60;99.90;;;;;;5073785;28;19999;-64
2022/09/13 05:14:24;;;;;;;;;;;16.60;99.90;;;;;;5073753;28;19912;-64
2022/09/13 05:16:49;;;;;;;;;;;16.60;99.90;;;;;;5073999;28;19915;-64
2022/09/13 05:19:15;;;;;;;;;;;16.60;99.90;;;;;;5073702;28;19931;-64
2022/09/13 05:21:40;;;;;;;;;;;16.60;99.90;;;;;;5055748;28;19912;-64
2022/09/13 05:24:06;;;;;;;;;;;16.60;99.90;;;;;;5073907;28;19915;-64
2022/09/13 05:26:31;;;;;;;;;;;16.60;99.90;;;;;;5073684;28;20367;-64
2022/09/13 05:28:57;;;;;;;;;;;16.70;99.90;;;;;;5073905;28;19908;-64
2022/09/13 05:31:25;;;;;;;;;;;16.70;99.90;;;;;;5073832;28;19913;-64
2022/09/13 05:33:52;;;;;;;;;;;16.70;99.90;;;;;;5073802;28;19909;-64
2022/09/13 05:36:18;;;;;;;;;;;16.80;99.90;;;;;;5073796;28;19916;-64
2022/09/13 05:38:44;;;;;;;;;;;16.90;99.90;;;;;;5073791;28;19912;-64
2022/09/13 05:41:09;;;;;;;;;;;;;;;;;;5073334;28;19956;-64
2022/09/13 05:43:35;;;;;;;;;;;16.90;99.90;;;;;;5073389;28;20378;-64
2022/09/13 05:46:02;;;;;;;;;;;16.90;99.90;;;;;;5055854;28;19978;-64
2022/09/13 05:48:28;;;;;;;;;;;16.90;99.90;;;;;;5073422;28;19908;-64
2022/09/13 05:50:54;;;;;;;;;;;16.90;99.90;;;;;;5073341;28;20359;-64
2022/09/13 05:53:19;;;;;;;;;;;17.00;99.90;;;;;;5069440;28;19920;-64
2022/09/13 05:55:45;;;;;;;;;;;17.00;99.90;;;;;;5073471;28;19908;-64
2022/09/13 05:58:10;;;;;;;;;;;17.10;99.90;;;;;;5072982;28;20309;-64
2022/09/13 06:00:36;;;;;;;;;;;17.00;99.90;;;;;;5073074;28;19912;-64
2022/09/13 06:03:01;;;;;;;;;;;17.10;99.90;;;;;;5073344;28;19958;-63
2022/09/13 06:05:26;;;;;;;;;;;17.10;99.90;;;;;;5072856;28;19931;-64
2022/09/13 06:07:52;;;;;;;;;;;17.20;99.90;;;;;;5073354;28;20157;-64
2022/09/13 06:10:19;;;;;;;;;;;17.20;99.90;;;;;;5055234;28;19909;-64
2022/09/13 06:12:44;;;;;;;;;;;17.20;99.90;;;;;;5055531;28;19909;-65
2022/09/13 06:15:10;;;;;;;;;;;17.20;99.90;;;;;;5072816;28;19931;-64
2022/09/13 06:17:36;;;;;;;;;;;17.20;99.90;;;;;;5072570;28;19944;-64
2022/09/13 06:20:02;;;;;;;;;;;17.20;99.90;;;;;;5073176;28;19913;-64
2022/09/13 06:22:32;;;;;;;;;;;17.30;99.90;;;;;;5073056;28;19953;-64
2022/09/13 06:24:58;;;;;;;;;;;17.30;99.90;;;;;;5073284;28;19909;-64
2022/09/13 06:27:23;;;;;;;;;;;17.30;99.90;;;;;;5075015;28;19912;-64
2022/09/13 06:29:49;;;;;;;;;;;17.30;99.90;;;;;;5076418;28;20406;-64
2022/09/13 06:32:14;;;;;;;;;;;17.50;99.90;;;;;;5076812;28;19908;-64
2022/09/13 06:34:40;;;;;;;;;;;17.50;99.90;;;;;;5076830;28;20007;-64
2022/09/13 06:37:05;;;;;;;;;;;17.60;99.90;;;;;;5076406;28;20289;-65
2022/09/13 06:39:31;;;;;;;;;;;17.60;99.90;;;;;;5076286;28;19908;-64
2022/09/13 06:41:56;;;;;;;;;;;17.60;99.90;;;;;;5076449;28;19912;-64
2022/09/13 06:44:22;;;;;;;;;;;17.70;99.90;;;;;;5076375;28;19912;-64
2022/09/13 06:46:47;;;;;;;;;;;17.80;99.90;;;;;;5076673;28;19944;-64
2022/09/13 06:49:13;;;;;;;;;;;17.80;99.90;;;;;;5076576;28;19912;-64
2022/09/13 06:51:38;;;;;;;;;;;17.90;99.90;;;;;;5076270;28;20336;-64
2022/09/13 06:54:04;;;;;;;;;;;18.00;99.90;;;;;;5075954;28;20007;-64
2022/09/13 06:56:31;;;;;;;;;;;18.10;99.90;;;;;;5076443;28;20366;-64
2022/09/13 06:58:57;;;;;;;;;;;18.10;99.90;;;;;;5076402;28;19908;-64
2022/09/13 07:01:26;;;;;;;;;;;18.20;99.90;;;;;;5076343;28;20366;-64
2022/09/13 07:03:53;;;;;;;;;;;18.30;99.90;;;;;;5075839;28;19957;-64
2022/09/13 07:06:20;;;;;;;;;;;18.40;99.90;;;;;;5076050;28;20385;-64
2022/09/13 07:08:47;;;;;;;;;;;18.40;99.90;;;;;;5075867;28;19909;-64
2022/09/13 07:11:13;;;;;;;;;;;18.60;99.90;;;;;;5075934;28;20363;-64
2022/09/13 07:13:39;;;;;;;;;;;18.70;99.90;;;;;;5075849;28;19908;-64
2022/09/13 07:16:05;;;;;;;;;;;18.90;99.90;;;;;;5075865;28;19999;-64
2022/09/13 07:18:31;;;;;;;;;;;19.00;99.90;;;;;;5076013;28;19954;-64
2022/09/13 07:20:59;;;;;;;;;;;19.10;99.90;;;;;;5075741;28;19917;-64
2022/09/13 07:23:24;;;;;;;;;;;19.20;99.90;;;;;;5075866;28;19915;-64
2022/09/13 07:25:53;;;;;;;;;;;19.30;99.90;;;;;;5075805;28;19908;-64
2022/09/13 07:28:19;;;;;;;;;;;19.40;99.90;;;;;;5075898;28;19952;-64
2022/09/13 07:30:44;;;;;;;;;;;19.50;99.90;;;;;;5075584;28;19916;-64
2022/09/13 07:33:11;;;;;;;;;;;19.90;99.90;;;;;;5057108;28;19909;-64
2022/09/13 07:35:37;;;;;;;;;;;20.10;99.90;;;;;;5075667;28;19931;-64
2022/09/13 07:38:02;;;;;;;;;;;20.40;99.90;;;;;;5075518;28;19909;-63
2022/09/13 07:40:28;;;;;;;;;;;21.30;99.90;;;;;;5075033;28;20375;-64
2022/09/13 07:42:53;;;;;;;;;;;22.40;99.90;;;;;;5057443;28;20358;-64
2022/09/13 07:45:20;;;;;;;;;;;22.30;99.90;;;;;;5075294;28;20367;-64
2022/09/13 07:47:46;;;;;;;;;;;22.00;99.90;;;;;;5075534;28;19939;-64
2022/09/13 07:50:11;;;;;;;;;;;21.90;99.90;;;;;;5075152;28;20359;-64
2022/09/13 07:52:37;;;;;;;;;;;21.70;99.90;;;;;;5057078;28;19908;-64
2022/09/13 07:55:03;;;;;;;;;;;21.60;99.90;;;;;;5075262;28;19966;-64
2022/09/13 07:57:28;;;;;;;;;;;21.40;99.90;;;;;;5074549;28;20466;-64
2022/09/13 07:59:54;;;;;;;;;;;21.20;99.90;;;;;;5074869;28;20363;-64
2022/09/13 08:02:19;;;;;;;;;;;21.50;99.90;;;;;;5074952;28;20298;-64
2022/09/13 08:04:45;;;;;;;;;;;22.70;99.90;;;;;;5074927;28;20392;-64
2022/09/13 08:07:10;;;;;;;;;;;23.10;99.90;;;;;;5074700;28;19908;-64
2022/09/13 08:09:35;;;;;;;;;;;24.40;99.90;;;;;;5074204;28;19908;-64
2022/09/13 08:12:01;;;;;;;;;;;24.40;99.90;;;;;;5074529;28;19915;-65
2022/09/13 08:14:26;;;;;;;;;;;25.10;99.90;;;;;;5074895;28;19909;-64
2022/09/13 08:16:54;;;;;;;;;;;25.30;99.90;;;;;;5074995;28;19915;-64
2022/09/13 08:19:19;;;;;;;;;;;25.30;99.90;;;;;;5074826;28;20294;-64
2022/09/13 08:21:45;;;;;;;;;;;25.10;99.90;;;;;;5074395;28;19923;-64
2022/09/13 08:24:14;;;;;;;;;;;24.60;99.90;;;;;;5074715;28;19909;-63
2022/09/13 08:26:39;;;;;;;;;;;24.80;99.90;;;;;;5074493;28;19908;-63
2022/09/13 08:29:05;;;;;;;;;;;25.00;99.90;;;;;;5056564;28;19915;-64
2022/09/13 08:31:31;;;;;;;;;;;24.70;99.90;;;;;;5074614;28;19969;-64
2022/09/13 08:33:56;;;;;;;;;;;24.40;99.90;;;;;;5074165;28;19909;-63
2022/09/13 08:36:22;;;;;;;;;;;24.40;99.90;;;;;;5074145;28;19908;-63
2022/09/13 08:38:51;;;;;;;;;;;24.80;99.90;;;;;;5074134;28;19908;-63
2022/09/13 08:41:30;;;;;;;;;;;25.20;99.90;;;;;;5073860;28;19955;-63
2022/09/13 08:44:00;;;;;;;;;;;25.00;99.90;;;;;;5074209;28;20122;-63
2022/09/13 08:46:28;;;;;;;;;;;25.10;99.90;;;;;;5073726;28;19909;-64
2022/09/13 08:48:55;;;;;;;;;;;25.60;99.90;;;;;;5073748;28;19912;-63
2022/09/13 08:51:40;;;;;;;;;;;25.30;99.90;;;;;;5073936;28;19915;-64
2022/09/13 08:54:10;;;;;;;;;;;25.90;99.90;;;;;;5073847;28;19954;-63
2022/09/13 08:56:40;;;;;;;;;;;26.30;99.90;;;;;;5073798;28;19915;-65
2022/09/13 08:59:15;;;;;;;;;;;26.20;99.90;;;;;;5073749;28;19916;-63
2022/09/13 09:01:46;;;;;;;;;;;26.00;99.90;;;;;;5073953;28;19920;-64
2022/09/13 09:06:56;;;;;;;;;;;25.20;99.90;;;;;;5091037;27;19913;-64
2022/09/13 09:09:21;;;;;;;;;;;25.80;99.90;;;;;;5091072;28;19912;-63
2022/09/13 09:12:00;;;;;;;;;;;25.80;99.90;;;;;;5090721;28;20432;-64
2022/09/13 09:14:30;;;;;;;;;;;25.40;99.90;;;;;;5090905;28;19916;-63
2022/09/13 09:16:59;;;;;;;;;;;25.00;99.90;;;;;;5091067;28;19908;-63
2022/09/13 09:19:29;;;;;;;;;;;25.30;99.90;;;;;;5123756;28;19966;-64
2022/09/13 09:21:56;;;;;;;;;;;25.40;99.90;;;;;;5091115;28;19970;-64
2022/09/13 09:24:24;;;;;;;;;;;25.30;99.90;;;;;;5090382;28;19909;-64
2022/09/13 09:26:49;;;;;;;;;;;26.00;99.90;;;;;;5090899;28;20007;-64
2022/09/13 09:29:24;;;;;;;;;;;26.10;99.90;;;;;;5090737;28;19940;-64
2022/09/13 09:34:43;;;;;;;;;;;26.30;99.90;;;;;;5091160;27;20275;-64
2022/09/13 09:37:20;;;;;;;;;;;26.00;99.90;;;;;;5090920;28;19912;-65
2022/09/13 09:39:45;;;;;;;;;;;25.30;99.90;;;;;;5091113;28;19908;-65
2022/09/13 09:42:14;;;;;;;;;;;25.70;99.90;;;;;;5090675;28;19930;-64
2022/09/13 09:44:42;;;;;;;;;;;26.20;99.90;;;;;;5091170;28;20351;-64
2022/09/13 09:47:27;;;;;;;;;;;26.50;99.90;;;;;;5091037;28;19909;-65
2022/09/13 09:50:16;;;;;;;;;;;27.40;99.90;;;;;;5090435;28;19962;-64
2022/09/13 09:52:49;;;;;;;;;;;26.30;99.90;;;;;;5090503;28;19927;-64
2022/09/13 09:55:25;;;;;;;;;;;26.30;99.90;;;;;;5090827;28;19947;-65
2022/09/13 09:57:55;;;;;;;;;;;27.10;99.90;;;;;;5089863;28;19961;-65
2022/09/13 10:00:22;;;;;;;;;;;27.00;99.90;;;;;;5090594;28;19953;-64
2022/09/13 10:02:50;;;;;;;;;;;27.00;99.90;;;;;;5090029;28;19908;-64
2022/09/13 10:05:19;;;;;;;;;;;27.10;99.90;;;;;;5090546;28;19908;-64
2022/09/13 10:07:53;;;;;;;;;;;27.00;99.90;;;;;;5090236;28;19915;-65
2022/09/13 10:10:33;;;;;;;;;;;26.40;99.90;;;;;;5090346;28;19908;-64
2022/09/13 10:12:59;;;;;;;;;;;26.80;99.90;;;;;;5090225;28;19913;-66
2022/09/13 10:15:28;;;;;;;;;;;27.00;99.90;;;;;;5090617;28;20260;-64
2022/09/13 10:18:02;;;;;;;;;;;27.30;99.90;;;;;;5090414;28;19912;-64
2022/09/13 10:20:28;;;;;;;;;;;27.40;99.90;;;;;;5090318;28;20294;-64
2022/09/13 10:23:09;;;;;;;;;;;27.50;99.90;;;;;;5090291;28;19998;-65
2022/09/13 10:25:36;;;;;;;;;;;27.40;99.90;;;;;;5090246;28;20343;-64
2022/09/13 10:28:03;;;;;;;;;;;27.40;99.90;;;;;;5090250;28;20370;-65
2022/09/13 10:30:31;;;;;;;;;;;26.70;99.90;;;;;;5090008;28;19909;-64
2022/09/13 10:32:57;;;;;;;;;;;27.10;99.90;;;;;;5097137;28;19920;-65
2022/09/13 10:35:23;;;;;;;;;;;26.90;99.90;;;;;;5110343;28;19941;-65
2022/09/13 10:37:50;;;;;;;;;;;26.50;99.90;;;;;;5092200;28;20000;-64
2022/09/13 10:40:24;;;;;;;;;;;26.40;99.90;;;;;;5091783;28;19908;-64
2022/09/13 10:42:52;;;;;;;;;;;26.00;99.90;;;;;;5110038;28;20041;-64
2022/09/13 10:45:21;;;;;;;;;;;25.50;99.90;;;;;;5100030;28;19909;-64
2022/09/13 10:47:49;;;;;;;;;;;26.30;99.90;;;;;;5096815;28;20395;-64
2022/09/13 10:50:30;;;;;;;;;;;26.60;99.90;;;;;;5096660;28;20286;-65
2022/09/13 10:52:56;;;;;;;;;;;25.80;99.90;;;;;;5096330;28;19955;-64
2022/09/13 10:55:32;;;;;;;;;;;25.10;99.90;;;;;;5096238;28;19908;-64
2022/09/13 11:03:29;;;;;;;;;;;25.60;99.90;;;;;;5090795;27;19913;-63
2022/09/13 11:06:15;;;;;;;;;;;25.40;99.90;;;;;;5090974;28;20378;-63
2022/09/13 11:08:47;;;;;;;;;;;25.50;99.90;;;;;;5090918;28;19915;-63
2022/09/13 11:11:32;;;;;;;;;;;25.30;99.90;;;;;;5089730;28;19908;-64
2022/09/13 11:14:09;;;;;;;;;;;25.40;99.90;;;;;;5090820;28;20306;-63
2022/09/13 11:16:55;;;;;;;;;;;25.30;99.90;;;;;;5090625;28;19935;-63
2022/09/13 11:22:26;;;;;;;;;;;25.70;99.90;;;;;;5070733;28;19919;-65
2022/09/13 11:24:58;;;;;;;;;;;25.90;99.90;;;;;;5070793;28;19913;-65
2022/09/13 11:27:43;;;;;;;;;;;26.30;99.90;;;;;;5070647;28;19908;-64
2022/09/13 11:30:12;;;;;;;;;;;26.20;99.90;;;;;;5070592;28;20363;-65
2022/09/13 11:32:51;;;;;;;;;;;26.50;99.90;;;;;;5070616;28;19913;-64
2022/09/13 11:35:37;;;;;;;;;;;26.20;99.90;;;;;;5070488;28;19909;-64
2022/09/13 11:38:11;;;;;;;;;;;26.00;99.90;;;;;;5070332;28;20012;-64
2022/09/13 11:43:33;;;;;;;;;;;25.30;99.90;;;;;;5070672;28;19913;-65
2022/09/13 11:46:18;;;;;;;;;;;25.90;99.90;;;;;;5070798;28;19919;-64
2022/09/13 11:51:36;;;;;;;;;;;26.20;99.90;;;;;;5069703;28;19934;-64
2022/09/13 11:54:21;;;;;;;;;;;26.40;99.90;;;;;;5069687;28;19923;-65
2022/09/13 11:56:49;;;;;;;;;;;26.60;99.90;;;;;;5069809;28;19958;-65
2022/09/13 11:59:23;;;;;;;;;;;26.90;99.90;;;;;;5069784;28;19917;-65
2022/09/13 12:01:52;;;;;;;;;;;27.00;99.90;;;;;;5069696;28;19908;-65
2022/09/13 12:04:27;;;;;;;;;;;26.40;99.90;;;;;;5070265;28;20364;-64
2022/09/13 12:06:58;;;;;;;;;;;26.30;99.90;;;;;;5070597;28;20009;-64
2022/09/13 12:09:28;;;;;;;;;;;26.20;99.90;;;;;;5070694;28;20005;-65
2022/09/13 12:11:58;;;;;;;;;;;25.80;99.90;;;;;;5070487;28;19915;-65
2022/09/13 12:14:26;;;;;;;;;;;25.50;99.90;;;;;;5070544;28;19915;-64
2022/09/13 12:16:54;;;;;;;;;;;25.70;99.90;;;;;;5069549;28;19913;-65
2022/09/13 12:19:30;;;;;;;;;;;26.00;99.90;;;;;;5069950;28;19908;-65
2022/09/13 12:21:58;;;;;;;;;;;25.70;99.90;;;;;;5070201;28;19956;-65
2022/09/13 12:24:33;;;;;;;;;;;26.00;99.90;;;;;;5069986;28;19952;-65
2022/09/13 12:27:02;;;;;;;;;;;26.10;99.90;;;;;;5068729;28;20400;-65
2022/09/13 12:29:35;;;;;;;;;;;26.30;99.90;;;;;;5070006;28;19963;-65
2022/09/13 12:32:03;;;;;;;;;;;25.70;99.90;;;;;;5069514;28;19935;-65
2022/09/13 12:34:33;;;;;;;;;;;25.30;99.90;;;;;;5069723;28;19912;-64
2022/09/13 12:37:19;;;;;;;;;;;25.30;99.90;;;;;;5069758;28;19932;-65
2022/09/13 12:39:52;;;;;;;;;;;25.40;99.90;;;;;;5069652;28;20259;-64
2022/09/13 12:42:37;;;;;;;;;;;25.60;99.90;;;;;;5069653;28;19966;-64
2022/09/13 12:45:10;;;;;;;;;;;25.70;99.90;;;;;;5069453;28;19909;-64
2022/09/13 12:47:54;;;;;;;;;;;25.60;99.90;;;;;;5069909;28;19915;-64
2022/09/13 12:50:40;;;;;;;;;;;25.40;99.90;;;;;;5080181;28;19996;-65
2022/09/13 12:53:25;;;;;;;;;;;25.40;99.90;;;;;;5089465;28;19915;-64
2022/09/13 12:56:11;;;;;;;;;;;25.50;99.90;;;;;;5089655;28;19912;-64
2022/09/13 12:58:56;;;;;;;;;;;25.30;99.90;;;;;;5071179;28;19908;-64
2022/09/13 13:01:23;;;;;;;;;;;25.10;99.90;;;;;;5084320;28;19916;-64
2022/09/13 13:03:52;;;;;;;;;;;24.90;99.90;;;;;;5076017;28;19916;-64
2022/09/13 13:06:23;;;;;;;;;;;24.90;99.90;;;;;;5076275;28;20363;-65
2022/09/13 13:08:49;;;;;;;;;;;24.80;99.90;;;;;;5075770;28;19999;-65
2022/09/13 13:11:22;;;;;;;;;;;24.70;99.90;;;;;;5075861;28;19948;-64
2022/09/13 13:13:56;;;;;;;;;;;24.60;99.90;;;;;;5075700;28;20002;-65
2022/09/13 13:19:05;;;;;;;;;;;24.20;99.90;;;;;;5070791;28;19919;-64
2022/09/13 13:21:38;;;;;;;;;;;24.10;99.90;;;;;;5070499;28;19913;-64
2022/09/13 13:26:57;;;;;;;;;;;24.30;99.90;;;;;;5090898;27;19918;-65
2022/09/13 13:29:23;;;;;;;;;;;24.10;99.90;;;;;;5090920;28;20014;-65
2022/09/13 13:34:43;;;;;;;;;;;24.20;99.90;;;;;;5090608;27;20298;-64
2022/09/13 13:39:47;;;;;;;;;;;24.20;99.90;;;;;;5070729;28;19913;-64
2022/09/13 13:42:23;;;;;;;;;;;24.10;99.90;;;;;;5070742;28;20428;-64
2022/09/13 13:44:54;;;;;;;;;;;24.30;99.90;;;;;;5070618;28;19909;-64
2022/09/13 13:47:23;;;;;;;;;;;24.60;99.90;;;;;;5070426;28;19909;-64
2022/09/13 13:52:46;;;;;;;;;;;24.50;99.90;;;;;;5090815;27;19916;-64
2022/09/13 13:55:30;;;;;;;;;;;24.80;99.90;;;;;;5090982;28;19934;-65
2022/09/13 13:58:02;;;;;;;;;;;25.30;99.90;;;;;;5090735;28;20310;-64
2022/09/13 14:00:30;;;;;;;;;;;25.70;99.90;;;;;;5091173;28;20329;-64
2022/09/13 14:05:53;;;;;;;;;;;25.50;99.90;;;;;;5070895;28;19919;-64
2022/09/13 14:08:39;;;;;;;;;;;25.10;99.90;;;;;;5070743;28;20018;-64
2022/09/13 14:11:13;;;;;;;;;;;25.20;99.90;;;;;;5070265;28;19913;-64
2022/09/13 14:13:59;;;;;;;;;;;25.30;99.90;;;;;;5070785;28;19908;-64
2022/09/13 14:16:44;;;;;;;;;;;25.50;99.90;;;;;;5070489;28;19913;-64
2022/09/13 14:19:17;;;;;;;;;;;25.70;99.90;;;;;;5070422;28;19916;-64
2022/09/13 14:21:43;;;;;;;;;;;25.70;99.90;;;;;;5070660;28;19908;-64
2022/09/13 14:24:24;;;;;;;;;;;25.70;99.90;;;;;;5070181;28;19971;-64
2022/09/13 14:26:50;;;;;;;;;;;25.40;99.90;;;;;;5070413;28;19933;-64
2022/09/13 14:29:18;;;;;;;;;;;25.40;99.90;;;;;;5070337;28;19932;-64
2022/09/13 14:31:45;;;;;;;;;;;25.40;99.90;;;;;;5070444;28;19962;-64
2022/09/13 14:34:27;;;;;;;;;;;25.50;99.90;;;;;;5070368;28;19909;-65
2022/09/13 14:36:54;;;;;;;;;;;25.50;99.90;;;;;;5070336;28;19909;-64
2022/09/13 14:39:20;;;;;;;;;;;25.40;99.90;;;;;;5070379;28;19951;-64
2022/09/13 14:41:45;;;;;;;;;;;25.40;99.90;;;;;;5070485;28;20001;-64
2022/09/13 14:44:13;;;;;;;;;;;25.00;99.90;;;;;;5068965;28;20026;-64
2022/09/13 14:46:40;;;;;;;;;;;24.70;99.90;;;;;;5070322;28;20293;-64
2022/09/13 14:49:09;;;;;;;;;;;24.60;99.90;;;;;;5069967;28;19908;-64
2022/09/13 14:51:44;;;;;;;;;;;24.70;99.90;;;;;;5070158;28;20321;-64
2022/09/13 14:54:14;;;;;;;;;;;24.90;99.90;;;;;;5069985;28;19959;-64
2022/09/13 14:56:41;;;;;;;;;;;24.90;99.90;;;;;;5070094;28;19908;-64
2022/09/13 14:59:13;;;;;;;;;;;25.10;99.90;;;;;;5069978;28;19955;-64
2022/09/13 15:01:38;;;;;;;;;;;25.00;99.90;;;;;;5069706;28;19915;-64
2022/09/13 15:04:04;;;;;;;;;;;25.00;99.90;;;;;;5077451;28;19924;-64
2022/09/13 15:06:32;;;;;;;;;;;24.80;99.90;;;;;;5090203;28;19944;-64
2022/09/13 15:09:14;;;;;;;;;;;24.90;99.90;;;;;;5089896;28;19962;-64
2022/09/13 15:11:53;;;;;;;;;;;24.80;99.90;;;;;;5089839;28;19961;-64
2022/09/13 15:14:22;;;;;;;;;;;24.80;99.90;;;;;;5090087;28;20347;-65